sensor_id;sensor_type;location;lat;lon;timestamp;P1;durP1;ratioP1;P2;durP2;ratioP2
9783;SDS011;4931;44.874;-1.092;2024-02-26T00:01:38;54.75;;;7.45;;
9783;SDS011;4931;44.874;-1.092;2024-02-26T00:04:03;59.53;;;7.90;;
9783;SDS011;4931;44.874;-1.092;2024-02-26T00:06:29;59.85;;;8.65;;
9783;SDS011;4931;44.874;-1.092;2024-02-26T00:08:56;49.17;;;7.47;;
9783;SDS011;4931;44.874;-1.092;2024-02-26T00:11:21;59.30;;;7.22;;
9783;SDS011;4931;44.874;-1.092;2024-02-26T00:13:47;57.65;;;6.97;;
9783;SDS011;4931;44.874;-1.092;2024-02-26T00:16:12;54.72;;;7.25;;
9783;SDS011;4931;44.874;-1.092;2024-02-26T00:18:37;53.80;;;7.57;;
9783;SDS011;4931;44.874;-1.092;2024-02-26T00:21:03;50.28;;;7.32;;
9783;SDS011;4931;44.874;-1.092;2024-02-26T00:23:29;45.38;;;6.57;;
9783;SDS011;4931;44.874;-1.092;2024-02-26T00:25:54;52.10;;;7.22;;
9783;SDS011;4931;44.874;-1.092;2024-02-26T00:28:20;39.95;;;6.13;;
9783;SDS011;4931;44.874;-1.092;2024-02-26T00:30:46;55.10;;;6.85;;
9783;SDS011;4931;44.874;-1.092;2024-02-26T00:33:12;51.90;;;6.78;;
9783;SDS011;4931;44.874;-1.092;2024-02-26T00:35:37;49.35;;;6.45;;
9783;SDS011;4931;44.874;-1.092;2024-02-26T00:38:03;40.33;;;5.40;;
9783;SDS011;4931;44.874;-1.092;2024-02-26T00:40:29;40.50;;;6.40;;
9783;SDS011;4931;44.874;-1.092;2024-02-26T00:42:54;43.75;;;5.53;;
9783;SDS011;4931;44.874;-1.092;2024-02-26T00:45:20;41.10;;;6.13;;
9783;SDS011;4931;44.874;-1.092;2024-02-26T00:47:45;44.70;;;6.10;;
9783;SDS011;4931;44.874;-1.092;2024-02-26T00:50:12;44.08;;;6.13;;
9783;SDS011;4931;44.874;-1.092;2024-02-26T00:52:38;47.17;;;5.95;;
9783;SDS011;4931;44.874;-1.092;2024-02-26T00:55:03;53.72;;;7.45;;
9783;SDS011;4931;44.874;-1.092;2024-02-26T00:57:29;55.58;;;7.15;;
9783;SDS011;4931;44.874;-1.092;2024-02-26T00:59:55;46.95;;;6.90;;
9783;SDS011;4931;44.874;-1.092;2024-02-26T01:02:21;58.50;;;7.63;;
9783;SDS011;4931;44.874;-1.092;2024-02-26T01:04:47;49.70;;;6.57;;
9783;SDS011;4931;44.874;-1.092;2024-02-26T01:07:13;48.22;;;6.43;;
9783;SDS011;4931;44.874;-1.092;2024-02-26T01:09:38;39.38;;;5.88;;
9783;SDS011;4931;44.874;-1.092;2024-02-26T01:12:04;51.35;;;6.60;;
9783;SDS011;4931;44.874;-1.092;2024-02-26T01:14:29;47.08;;;6.40;;
9783;SDS011;4931;44.874;-1.092;2024-02-26T01:16:55;52.03;;;7.28;;
9783;SDS011;4931;44.874;-1.092;2024-02-26T01:19:20;53.50;;;7.07;;
9783;SDS011;4931;44.874;-1.092;2024-02-26T01:21:46;53.15;;;6.80;;
9783;SDS011;4931;44.874;-1.092;2024-02-26T01:24:12;40.42;;;6.72;;
9783;SDS011;4931;44.874;-1.092;2024-02-26T01:26:37;57.10;;;7.97;;
9783;SDS011;4931;44.874;-1.092;2024-02-26T01:29:03;46.65;;;7.53;;
9783;SDS011;4931;44.874;-1.092;2024-02-26T01:31:28;50.22;;;7.18;;
9783;SDS011;4931;44.874;-1.092;2024-02-26T01:33:54;36.28;;;5.40;;
9783;SDS011;4931;44.874;-1.092;2024-02-26T01:36:19;41.15;;;4.95;;
9783;SDS011;4931;44.874;-1.092;2024-02-26T01:38:46;40.47;;;5.78;;
9783;SDS011;4931;44.874;-1.092;2024-02-26T01:41:13;41.15;;;5.20;;
9783;SDS011;4931;44.874;-1.092;2024-02-26T01:43:38;44.92;;;6.53;;
9783;SDS011;4931;44.874;-1.092;2024-02-26T01:46:04;49.25;;;6.55;;
9783;SDS011;4931;44.874;-1.092;2024-02-26T01:48:30;48.20;;;7.07;;
9783;SDS011;4931;44.874;-1.092;2024-02-26T01:50:55;54.67;;;7.40;;
9783;SDS011;4931;44.874;-1.092;2024-02-26T01:53:21;48.28;;;6.25;;
9783;SDS011;4931;44.874;-1.092;2024-02-26T01:55:47;37.83;;;5.65;;
9783;SDS011;4931;44.874;-1.092;2024-02-26T01:58:12;55.30;;;6.72;;
9783;SDS011;4931;44.874;-1.092;2024-02-26T02:00:39;54.60;;;6.97;;
9783;SDS011;4931;44.874;-1.092;2024-02-26T02:03:04;62.58;;;7.90;;
9783;SDS011;4931;44.874;-1.092;2024-02-26T02:05:30;56.45;;;7.82;;
9783;SDS011;4931;44.874;-1.092;2024-02-26T02:07:56;63.05;;;8.13;;
9783;SDS011;4931;44.874;-1.092;2024-02-26T02:10:22;78.07;;;8.60;;
9783;SDS011;4931;44.874;-1.092;2024-02-26T02:12:50;65.80;;;9.63;;
9783;SDS011;4931;44.874;-1.092;2024-02-26T02:15:16;68.47;;;7.85;;
9783;SDS011;4931;44.874;-1.092;2024-02-26T02:17:42;63.05;;;7.95;;
9783;SDS011;4931;44.874;-1.092;2024-02-26T02:20:17;58.17;;;8.23;;
9783;SDS011;4931;44.874;-1.092;2024-02-26T02:22:46;56.47;;;8.07;;
9783;SDS011;4931;44.874;-1.092;2024-02-26T02:25:12;46.80;;;7.32;;
9783;SDS011;4931;44.874;-1.092;2024-02-26T02:27:38;60.50;;;8.07;;
9783;SDS011;4931;44.874;-1.092;2024-02-26T02:30:04;38.33;;;5.88;;
9783;SDS011;4931;44.874;-1.092;2024-02-26T02:32:31;44.42;;;6.18;;
9783;SDS011;4931;44.874;-1.092;2024-02-26T02:34:57;38.97;;;5.85;;
9783;SDS011;4931;44.874;-1.092;2024-02-26T02:37:23;43.38;;;6.25;;
9783;SDS011;4931;44.874;-1.092;2024-02-26T02:39:48;43.47;;;6.35;;
9783;SDS011;4931;44.874;-1.092;2024-02-26T02:42:14;48.60;;;7.05;;
9783;SDS011;4931;44.874;-1.092;2024-02-26T02:44:40;38.67;;;6.13;;
9783;SDS011;4931;44.874;-1.092;2024-02-26T02:47:05;40.70;;;6.40;;
9783;SDS011;4931;44.874;-1.092;2024-02-26T02:49:31;48.42;;;6.68;;
9783;SDS011;4931;44.874;-1.092;2024-02-26T02:51:56;46.63;;;6.57;;
9783;SDS011;4931;44.874;-1.092;2024-02-26T02:54:22;48.20;;;6.53;;
9783;SDS011;4931;44.874;-1.092;2024-02-26T02:56:48;50.50;;;6.13;;
9783;SDS011;4931;44.874;-1.092;2024-02-26T02:59:13;43.15;;;6.43;;
9783;SDS011;4931;44.874;-1.092;2024-02-26T03:01:39;47.88;;;7.85;;
9783;SDS011;4931;44.874;-1.092;2024-02-26T03:04:05;55.78;;;7.65;;
9783;SDS011;4931;44.874;-1.092;2024-02-26T03:06:30;36.28;;;5.20;;
9783;SDS011;4931;44.874;-1.092;2024-02-26T03:08:55;36.30;;;4.47;;
9783;SDS011;4931;44.874;-1.092;2024-02-26T03:11:21;41.78;;;5.55;;
9783;SDS011;4931;44.874;-1.092;2024-02-26T03:13:46;35.72;;;5.03;;
9783;SDS011;4931;44.874;-1.092;2024-02-26T03:16:12;44.03;;;6.18;;
9783;SDS011;4931;44.874;-1.092;2024-02-26T03:18:38;44.15;;;6.38;;
9783;SDS011;4931;44.874;-1.092;2024-02-26T03:21:05;44.55;;;6.80;;
9783;SDS011;4931;44.874;-1.092;2024-02-26T03:23:31;40.50;;;6.18;;
9783;SDS011;4931;44.874;-1.092;2024-02-26T03:25:57;47.00;;;6.70;;
9783;SDS011;4931;44.874;-1.092;2024-02-26T03:28:23;40.13;;;6.60;;
9783;SDS011;4931;44.874;-1.092;2024-02-26T03:30:48;45.33;;;7.28;;
9783;SDS011;4931;44.874;-1.092;2024-02-26T03:33:14;67.50;;;8.00;;
9783;SDS011;4931;44.874;-1.092;2024-02-26T03:35:39;46.92;;;7.05;;
9783;SDS011;4931;44.874;-1.092;2024-02-26T03:38:05;60.47;;;7.78;;
9783;SDS011;4931;44.874;-1.092;2024-02-26T03:40:30;60.45;;;8.07;;
9783;SDS011;4931;44.874;-1.092;2024-02-26T03:42:56;53.20;;;7.57;;
9783;SDS011;4931;44.874;-1.092;2024-02-26T03:45:23;55.22;;;7.32;;
9783;SDS011;4931;44.874;-1.092;2024-02-26T03:47:48;57.15;;;7.28;;
9783;SDS011;4931;44.874;-1.092;2024-02-26T03:50:14;59.88;;;6.78;;
9783;SDS011;4931;44.874;-1.092;2024-02-26T03:52:39;41.00;;;6.65;;
9783;SDS011;4931;44.874;-1.092;2024-02-26T03:55:05;58.05;;;7.55;;
9783;SDS011;4931;44.874;-1.092;2024-02-26T03:57:31;54.03;;;7.40;;
9783;SDS011;4931;44.874;-1.092;2024-02-26T03:59:56;51.97;;;8.55;;
9783;SDS011;4931;44.874;-1.092;2024-02-26T04:02:22;55.00;;;7.47;;
9783;SDS011;4931;44.874;-1.092;2024-02-26T04:04:48;48.85;;;6.63;;
9783;SDS011;4931;44.874;-1.092;2024-02-26T04:07:14;46.83;;;6.32;;
9783;SDS011;4931;44.874;-1.092;2024-02-26T04:09:39;45.17;;;7.10;;
9783;SDS011;4931;44.874;-1.092;2024-02-26T04:12:05;52.38;;;6.70;;
9783;SDS011;4931;44.874;-1.092;2024-02-26T04:14:30;46.90;;;6.40;;
9783;SDS011;4931;44.874;-1.092;2024-02-26T04:16:56;49.80;;;6.75;;
9783;SDS011;4931;44.874;-1.092;2024-02-26T04:19:21;47.22;;;6.38;;
9783;SDS011;4931;44.874;-1.092;2024-02-26T04:21:47;49.58;;;6.60;;
9783;SDS011;4931;44.874;-1.092;2024-02-26T04:24:12;49.95;;;6.82;;
9783;SDS011;4931;44.874;-1.092;2024-02-26T04:26:38;57.55;;;7.40;;
9783;SDS011;4931;44.874;-1.092;2024-02-26T04:29:03;59.47;;;8.13;;
9783;SDS011;4931;44.874;-1.092;2024-02-26T04:31:29;55.22;;;7.13;;
9783;SDS011;4931;44.874;-1.092;2024-02-26T04:33:56;60.65;;;7.40;;
9783;SDS011;4931;44.874;-1.092;2024-02-26T04:36:22;58.30;;;7.60;;
9783;SDS011;4931;44.874;-1.092;2024-02-26T04:38:47;61.40;;;8.75;;
9783;SDS011;4931;44.874;-1.092;2024-02-26T04:41:12;59.60;;;8.40;;
9783;SDS011;4931;44.874;-1.092;2024-02-26T04:43:38;52.53;;;7.32;;
9783;SDS011;4931;44.874;-1.092;2024-02-26T04:46:09;54.90;;;7.88;;
9783;SDS011;4931;44.874;-1.092;2024-02-26T04:48:38;40.58;;;7.40;;
9783;SDS011;4931;44.874;-1.092;2024-02-26T04:51:04;55.08;;;7.68;;
9783;SDS011;4931;44.874;-1.092;2024-02-26T04:53:30;50.70;;;7.45;;
9783;SDS011;4931;44.874;-1.092;2024-02-26T04:55:55;56.17;;;7.53;;
9783;SDS011;4931;44.874;-1.092;2024-02-26T04:58:21;52.88;;;7.72;;
9783;SDS011;4931;44.874;-1.092;2024-02-26T05:00:46;63.67;;;8.25;;
9783;SDS011;4931;44.874;-1.092;2024-02-26T05:03:12;51.33;;;7.45;;
9783;SDS011;4931;44.874;-1.092;2024-02-26T05:05:44;63.60;;;8.13;;
9783;SDS011;4931;44.874;-1.092;2024-02-26T05:08:10;61.15;;;7.93;;
9783;SDS011;4931;44.874;-1.092;2024-02-26T05:10:36;58.50;;;6.50;;
9783;SDS011;4931;44.874;-1.092;2024-02-26T05:13:05;31.13;;;4.30;;
9783;SDS011;4931;44.874;-1.092;2024-02-26T05:15:30;37.05;;;5.55;;
9783;SDS011;4931;44.874;-1.092;2024-02-26T05:17:56;59.67;;;7.70;;
9783;SDS011;4931;44.874;-1.092;2024-02-26T05:20:21;49.33;;;7.13;;
9783;SDS011;4931;44.874;-1.092;2024-02-26T05:22:47;54.67;;;7.72;;
9783;SDS011;4931;44.874;-1.092;2024-02-26T05:25:14;66.95;;;8.68;;
9783;SDS011;4931;44.874;-1.092;2024-02-26T05:27:40;64.63;;;7.93;;
9783;SDS011;4931;44.874;-1.092;2024-02-26T05:30:06;64.88;;;8.68;;
9783;SDS011;4931;44.874;-1.092;2024-02-26T05:32:32;65.97;;;8.98;;
9783;SDS011;4931;44.874;-1.092;2024-02-26T05:34:58;61.20;;;7.90;;
9783;SDS011;4931;44.874;-1.092;2024-02-26T05:37:23;67.82;;;8.40;;
9783;SDS011;4931;44.874;-1.092;2024-02-26T05:39:48;66.68;;;7.55;;
9783;SDS011;4931;44.874;-1.092;2024-02-26T05:42:14;57.78;;;8.13;;
9783;SDS011;4931;44.874;-1.092;2024-02-26T05:44:39;56.40;;;7.65;;
9783;SDS011;4931;44.874;-1.092;2024-02-26T05:47:05;59.83;;;8.18;;
9783;SDS011;4931;44.874;-1.092;2024-02-26T05:49:30;57.75;;;7.90;;
9783;SDS011;4931;44.874;-1.092;2024-02-26T05:51:56;54.05;;;8.02;;
9783;SDS011;4931;44.874;-1.092;2024-02-26T05:54:21;48.40;;;6.53;;
9783;SDS011;4931;44.874;-1.092;2024-02-26T05:56:47;43.63;;;5.97;;
9783;SDS011;4931;44.874;-1.092;2024-02-26T05:59:12;51.22;;;6.97;;
9783;SDS011;4931;44.874;-1.092;2024-02-26T06:01:38;44.30;;;6.82;;
9783;SDS011;4931;44.874;-1.092;2024-02-26T06:04:03;62.88;;;8.27;;
9783;SDS011;4931;44.874;-1.092;2024-02-26T06:06:28;56.60;;;7.20;;
9783;SDS011;4931;44.874;-1.092;2024-02-26T06:08:54;41.25;;;5.75;;
9783;SDS011;4931;44.874;-1.092;2024-02-26T06:11:19;49.38;;;6.18;;
9783;SDS011;4931;44.874;-1.092;2024-02-26T06:13:45;35.65;;;5.72;;
9783;SDS011;4931;44.874;-1.092;2024-02-26T06:16:10;42.85;;;6.00;;
9783;SDS011;4931;44.874;-1.092;2024-02-26T06:18:36;44.90;;;7.93;;
9783;SDS011;4931;44.874;-1.092;2024-02-26T06:21:01;47.10;;;6.28;;
9783;SDS011;4931;44.874;-1.092;2024-02-26T06:23:27;59.90;;;8.20;;
9783;SDS011;4931;44.874;-1.092;2024-02-26T06:25:53;48.88;;;7.35;;
9783;SDS011;4931;44.874;-1.092;2024-02-26T06:28:18;55.50;;;7.82;;
9783;SDS011;4931;44.874;-1.092;2024-02-26T06:30:44;48.50;;;7.18;;
9783;SDS011;4931;44.874;-1.092;2024-02-26T06:33:11;40.63;;;6.25;;
9783;SDS011;4931;44.874;-1.092;2024-02-26T06:35:37;53.65;;;6.50;;
9783;SDS011;4931;44.874;-1.092;2024-02-26T06:38:03;45.28;;;7.13;;
9783;SDS011;4931;44.874;-1.092;2024-02-26T06:40:29;40.17;;;5.57;;
9783;SDS011;4931;44.874;-1.092;2024-02-26T06:42:55;33.08;;;5.07;;
9783;SDS011;4931;44.874;-1.092;2024-02-26T06:45:21;37.83;;;5.55;;
9783;SDS011;4931;44.874;-1.092;2024-02-26T06:47:46;39.15;;;6.03;;
9783;SDS011;4931;44.874;-1.092;2024-02-26T06:50:12;42.10;;;5.82;;
9783;SDS011;4931;44.874;-1.092;2024-02-26T06:52:39;48.80;;;5.80;;
9783;SDS011;4931;44.874;-1.092;2024-02-26T06:55:05;37.97;;;5.30;;
9783;SDS011;4931;44.874;-1.092;2024-02-26T06:57:33;28.63;;;4.90;;
9783;SDS011;4931;44.874;-1.092;2024-02-26T06:59:58;43.50;;;6.07;;
9783;SDS011;4931;44.874;-1.092;2024-02-26T07:02:24;40.55;;;5.93;;
9783;SDS011;4931;44.874;-1.092;2024-02-26T07:04:49;56.53;;;6.47;;
9783;SDS011;4931;44.874;-1.092;2024-02-26T07:07:15;53.28;;;6.53;;
9783;SDS011;4931;44.874;-1.092;2024-02-26T07:09:43;55.33;;;7.18;;
9783;SDS011;4931;44.874;-1.092;2024-02-26T07:12:08;57.63;;;7.65;;
9783;SDS011;4931;44.874;-1.092;2024-02-26T07:14:34;48.55;;;6.65;;
9783;SDS011;4931;44.874;-1.092;2024-02-26T07:17:00;49.75;;;6.38;;
9783;SDS011;4931;44.874;-1.092;2024-02-26T07:19:25;53.97;;;6.18;;
9783;SDS011;4931;44.874;-1.092;2024-02-26T07:21:51;54.50;;;6.70;;
9783;SDS011;4931;44.874;-1.092;2024-02-26T07:24:16;53.25;;;7.22;;
9783;SDS011;4931;44.874;-1.092;2024-02-26T07:26:42;51.67;;;6.35;;
9783;SDS011;4931;44.874;-1.092;2024-02-26T07:29:07;45.05;;;5.68;;
9783;SDS011;4931;44.874;-1.092;2024-02-26T07:31:33;31.95;;;4.57;;
9783;SDS011;4931;44.874;-1.092;2024-02-26T07:33:58;30.10;;;3.97;;
9783;SDS011;4931;44.874;-1.092;2024-02-26T07:36:23;33.72;;;4.32;;
9783;SDS011;4931;44.874;-1.092;2024-02-26T07:38:49;25.60;;;3.70;;
9783;SDS011;4931;44.874;-1.092;2024-02-26T07:41:14;119.60;;;56.83;;
9783;SDS011;4931;44.874;-1.092;2024-02-26T07:43:40;118.75;;;55.05;;
9783;SDS011;4931;44.874;-1.092;2024-02-26T07:46:06;79.70;;;29.17;;
9783;SDS011;4931;44.874;-1.092;2024-02-26T07:48:31;44.15;;;5.68;;
9783;SDS011;4931;44.874;-1.092;2024-02-26T07:50:57;40.50;;;4.82;;
9783;SDS011;4931;44.874;-1.092;2024-02-26T07:53:24;43.90;;;5.15;;
9783;SDS011;4931;44.874;-1.092;2024-02-26T07:55:49;31.17;;;4.40;;
9783;SDS011;4931;44.874;-1.092;2024-02-26T07:58:15;35.58;;;4.53;;
9783;SDS011;4931;44.874;-1.092;2024-02-26T08:00:40;27.40;;;3.75;;
9783;SDS011;4931;44.874;-1.092;2024-02-26T08:03:05;29.92;;;4.35;;
9783;SDS011;4931;44.874;-1.092;2024-02-26T08:05:31;28.95;;;3.65;;
9783;SDS011;4931;44.874;-1.092;2024-02-26T08:07:56;26.67;;;3.92;;
9783;SDS011;4931;44.874;-1.092;2024-02-26T08:10:22;25.75;;;3.67;;
9783;SDS011;4931;44.874;-1.092;2024-02-26T08:12:47;24.60;;;3.83;;
9783;SDS011;4931;44.874;-1.092;2024-02-26T08:15:13;29.95;;;3.58;;
9783;SDS011;4931;44.874;-1.092;2024-02-26T08:17:38;28.30;;;3.75;;
9783;SDS011;4931;44.874;-1.092;2024-02-26T08:20:04;25.25;;;4.47;;
9783;SDS011;4931;44.874;-1.092;2024-02-26T08:22:30;25.67;;;4.57;;
9783;SDS011;4931;44.874;-1.092;2024-02-26T08:24:55;26.98;;;4.85;;
9783;SDS011;4931;44.874;-1.092;2024-02-26T08:27:21;30.15;;;4.85;;
9783;SDS011;4931;44.874;-1.092;2024-02-26T08:29:46;32.90;;;4.65;;
9783;SDS011;4931;44.874;-1.092;2024-02-26T08:32:12;36.17;;;5.22;;
9783;SDS011;4931;44.874;-1.092;2024-02-26T08:34:37;35.30;;;5.55;;
9783;SDS011;4931;44.874;-1.092;2024-02-26T08:37:03;47.55;;;5.82;;
9783;SDS011;4931;44.874;-1.092;2024-02-26T08:39:28;46.65;;;5.97;;
9783;SDS011;4931;44.874;-1.092;2024-02-26T08:41:54;41.50;;;5.82;;
9783;SDS011;4931;44.874;-1.092;2024-02-26T08:44:19;45.03;;;6.97;;
9783;SDS011;4931;44.874;-1.092;2024-02-26T08:46:45;39.83;;;5.45;;
9783;SDS011;4931;44.874;-1.092;2024-02-26T08:49:11;43.03;;;6.57;;
9783;SDS011;4931;44.874;-1.092;2024-02-26T08:51:40;39.25;;;4.97;;
9783;SDS011;4931;44.874;-1.092;2024-02-26T08:54:07;32.65;;;4.82;;
9783;SDS011;4931;44.874;-1.092;2024-02-26T08:56:33;38.30;;;4.60;;
9783;SDS011;4931;44.874;-1.092;2024-02-26T08:58:59;36.45;;;4.85;;
9783;SDS011;4931;44.874;-1.092;2024-02-26T09:01:28;36.58;;;4.85;;
9783;SDS011;4931;44.874;-1.092;2024-02-26T09:03:54;31.77;;;5.00;;
9783;SDS011;4931;44.874;-1.092;2024-02-26T09:06:21;34.00;;;4.68;;
9783;SDS011;4931;44.874;-1.092;2024-02-26T09:08:47;28.35;;;4.53;;
9783;SDS011;4931;44.874;-1.092;2024-02-26T09:11:12;32.42;;;4.65;;
9783;SDS011;4931;44.874;-1.092;2024-02-26T09:13:38;33.70;;;4.53;;
9783;SDS011;4931;44.874;-1.092;2024-02-26T09:16:03;30.25;;;4.15;;
9783;SDS011;4931;44.874;-1.092;2024-02-26T09:18:29;33.92;;;4.70;;
9783;SDS011;4931;44.874;-1.092;2024-02-26T09:20:55;31.55;;;5.18;;
9783;SDS011;4931;44.874;-1.092;2024-02-26T09:23:20;38.60;;;6.45;;
9783;SDS011;4931;44.874;-1.092;2024-02-26T09:25:46;31.85;;;5.20;;
9783;SDS011;4931;44.874;-1.092;2024-02-26T09:28:11;33.55;;;4.80;;
9783;SDS011;4931;44.874;-1.092;2024-02-26T09:30:36;37.63;;;4.80;;
9783;SDS011;4931;44.874;-1.092;2024-02-26T09:33:03;36.30;;;4.55;;
9783;SDS011;4931;44.874;-1.092;2024-02-26T09:35:29;30.95;;;4.32;;
9783;SDS011;4931;44.874;-1.092;2024-02-26T09:37:55;33.05;;;3.80;;
9783;SDS011;4931;44.874;-1.092;2024-02-26T09:40:20;31.10;;;4.07;;
9783;SDS011;4931;44.874;-1.092;2024-02-26T09:42:47;26.40;;;4.13;;
9783;SDS011;4931;44.874;-1.092;2024-02-26T09:45:17;23.23;;;4.10;;
9783;SDS011;4931;44.874;-1.092;2024-02-26T09:47:44;34.08;;;4.38;;
9783;SDS011;4931;44.874;-1.092;2024-02-26T09:50:10;31.02;;;4.00;;
9783;SDS011;4931;44.874;-1.092;2024-02-26T09:52:38;30.90;;;4.38;;
9783;SDS011;4931;44.874;-1.092;2024-02-26T09:55:07;30.98;;;4.85;;
9783;SDS011;4931;44.874;-1.092;2024-02-26T09:57:36;37.63;;;4.82;;
9783;SDS011;4931;44.874;-1.092;2024-02-26T10:00:02;31.15;;;5.65;;
9783;SDS011;4931;44.874;-1.092;2024-02-26T10:02:33;32.60;;;5.63;;
9783;SDS011;4931;44.874;-1.092;2024-02-26T10:05:03;27.17;;;5.07;;
9783;SDS011;4931;44.874;-1.092;2024-02-26T10:07:30;28.33;;;4.45;;
9783;SDS011;4931;44.874;-1.092;2024-02-26T10:09:56;34.63;;;5.30;;
9783;SDS011;4931;44.874;-1.092;2024-02-26T10:12:22;29.85;;;5.55;;
9783;SDS011;4931;44.874;-1.092;2024-02-26T10:14:50;31.48;;;6.13;;
9783;SDS011;4931;44.874;-1.092;2024-02-26T10:17:16;42.97;;;5.97;;
9783;SDS011;4931;44.874;-1.092;2024-02-26T10:19:42;33.05;;;5.85;;
9783;SDS011;4931;44.874;-1.092;2024-02-26T10:22:07;31.70;;;4.65;;
9783;SDS011;4931;44.874;-1.092;2024-02-26T10:24:33;32.10;;;4.85;;
9783;SDS011;4931;44.874;-1.092;2024-02-26T10:26:59;28.55;;;4.88;;
9783;SDS011;4931;44.874;-1.092;2024-02-26T10:29:25;13.23;;;2.28;;
9783;SDS011;4931;44.874;-1.092;2024-02-26T10:31:51;11.02;;;1.85;;
9783;SDS011;4931;44.874;-1.092;2024-02-26T10:34:17;10.63;;;1.83;;
9783;SDS011;4931;44.874;-1.092;2024-02-26T10:36:43;8.35;;;1.17;;
9783;SDS011;4931;44.874;-1.092;2024-02-26T10:39:09;8.40;;;1.58;;
9783;SDS011;4931;44.874;-1.092;2024-02-26T10:41:37;5.82;;;1.02;;
9783;SDS011;4931;44.874;-1.092;2024-02-26T10:44:03;10.77;;;1.27;;
9783;SDS011;4931;44.874;-1.092;2024-02-26T10:46:29;6.70;;;1.20;;
9783;SDS011;4931;44.874;-1.092;2024-02-26T10:48:54;7.50;;;1.27;;
9783;SDS011;4931;44.874;-1.092;2024-02-26T10:51:28;9.60;;;1.38;;
9783;SDS011;4931;44.874;-1.092;2024-02-26T10:53:55;5.22;;;1.40;;
9783;SDS011;4931;44.874;-1.092;2024-02-26T10:56:26;8.60;;;1.85;;
9783;SDS011;4931;44.874;-1.092;2024-02-26T10:58:55;9.55;;;2.15;;
9783;SDS011;4931;44.874;-1.092;2024-02-26T11:01:22;10.93;;;2.28;;
9783;SDS011;4931;44.874;-1.092;2024-02-26T11:03:50;11.93;;;2.35;;
9783;SDS011;4931;44.874;-1.092;2024-02-26T11:06:18;13.57;;;2.50;;
9783;SDS011;4931;44.874;-1.092;2024-02-26T11:08:49;12.20;;;1.98;;
9783;SDS011;4931;44.874;-1.092;2024-02-26T11:11:18;15.32;;;2.08;;
9783;SDS011;4931;44.874;-1.092;2024-02-26T11:13:46;16.02;;;2.58;;
9783;SDS011;4931;44.874;-1.092;2024-02-26T11:18:46;14.60;;;2.25;;
9783;SDS011;4931;44.874;-1.092;2024-02-26T11:21:15;12.93;;;1.75;;
9783;SDS011;4931;44.874;-1.092;2024-02-26T11:23:43;12.13;;;1.80;;
9783;SDS011;4931;44.874;-1.092;2024-02-26T11:26:10;10.65;;;2.05;;
9783;SDS011;4931;44.874;-1.092;2024-02-26T11:28:38;14.40;;;1.98;;
9783;SDS011;4931;44.874;-1.092;2024-02-26T11:31:05;15.10;;;2.22;;
9783;SDS011;4931;44.874;-1.092;2024-02-26T11:33:32;16.75;;;2.20;;
9783;SDS011;4931;44.874;-1.092;2024-02-26T11:36:00;14.02;;;2.58;;
9783;SDS011;4931;44.874;-1.092;2024-02-26T11:38:27;15.77;;;2.03;;
9783;SDS011;4931;44.874;-1.092;2024-02-26T11:40:53;17.52;;;2.90;;
9783;SDS011;4931;44.874;-1.092;2024-02-26T11:43:23;16.58;;;2.50;;
9783;SDS011;4931;44.874;-1.092;2024-02-26T11:46:24;17.70;;;2.70;;
9783;SDS011;4931;44.874;-1.092;2024-02-26T11:49:29;24.42;;;3.72;;
9783;SDS011;4931;44.874;-1.092;2024-02-26T11:51:52;23.08;;;3.40;;
9783;SDS011;4931;44.874;-1.092;2024-02-26T12:05:26;14.82;;;2.20;;
9783;SDS011;4931;44.874;-1.092;2024-02-26T12:08:14;16.67;;;2.03;;
9783;SDS011;4931;44.874;-1.092;2024-02-26T12:10:42;12.02;;;2.03;;
9783;SDS011;4931;44.874;-1.092;2024-02-26T12:15:42;15.90;;;2.30;;
9783;SDS011;4931;44.874;-1.092;2024-02-26T12:18:09;18.23;;;2.15;;
9783;SDS011;4931;44.874;-1.092;2024-02-26T12:20:36;16.17;;;2.13;;
9783;SDS011;4931;44.874;-1.092;2024-02-26T12:23:03;13.80;;;2.30;;
9783;SDS011;4931;44.874;-1.092;2024-02-26T12:25:31;11.38;;;1.42;;
9783;SDS011;4931;44.874;-1.092;2024-02-26T12:27:58;10.15;;;1.67;;
9783;SDS011;4931;44.874;-1.092;2024-02-26T12:30:24;12.52;;;1.90;;
9783;SDS011;4931;44.874;-1.092;2024-02-26T12:32:54;11.03;;;1.53;;
9783;SDS011;4931;44.874;-1.092;2024-02-26T12:35:25;11.57;;;1.60;;
9783;SDS011;4931;44.874;-1.092;2024-02-26T12:37:52;12.98;;;1.98;;
9783;SDS011;4931;44.874;-1.092;2024-02-26T12:40:19;14.48;;;2.03;;
9783;SDS011;4931;44.874;-1.092;2024-02-26T12:42:45;15.77;;;2.35;;
9783;SDS011;4931;44.874;-1.092;2024-02-26T12:45:11;16.13;;;2.15;;
9783;SDS011;4931;44.874;-1.092;2024-02-26T12:47:41;12.32;;;1.73;;
9783;SDS011;4931;44.874;-1.092;2024-02-26T12:50:08;15.55;;;2.63;;
9783;SDS011;4931;44.874;-1.092;2024-02-26T12:52:35;23.17;;;2.75;;
9783;SDS011;4931;44.874;-1.092;2024-02-26T12:55:02;16.58;;;2.20;;
9783;SDS011;4931;44.874;-1.092;2024-02-26T12:57:29;14.00;;;2.50;;
9783;SDS011;4931;44.874;-1.092;2024-02-26T12:59:57;11.95;;;1.80;;
9783;SDS011;4931;44.874;-1.092;2024-02-26T13:02:24;19.80;;;3.10;;
9783;SDS011;4931;44.874;-1.092;2024-02-26T13:04:50;21.50;;;3.10;;
9783;SDS011;4931;44.874;-1.092;2024-02-26T13:07:16;17.10;;;2.30;;
9783;SDS011;4931;44.874;-1.092;2024-02-26T13:09:41;12.45;;;2.53;;
9783;SDS011;4931;44.874;-1.092;2024-02-26T13:12:07;9.02;;;1.58;;
9783;SDS011;4931;44.874;-1.092;2024-02-26T13:14:33;19.63;;;2.25;;
9783;SDS011;4931;44.874;-1.092;2024-02-26T13:16:59;14.10;;;1.90;;
9783;SDS011;4931;44.874;-1.092;2024-02-26T13:19:26;15.07;;;2.40;;
9783;SDS011;4931;44.874;-1.092;2024-02-26T13:21:53;10.25;;;1.77;;
9783;SDS011;4931;44.874;-1.092;2024-02-26T13:24:19;14.70;;;1.92;;
9783;SDS011;4931;44.874;-1.092;2024-02-26T13:26:45;14.45;;;2.10;;
9783;SDS011;4931;44.874;-1.092;2024-02-26T13:29:20;9.02;;;1.85;;
9783;SDS011;4931;44.874;-1.092;2024-02-26T13:31:46;14.80;;;2.15;;
9783;SDS011;4931;44.874;-1.092;2024-02-26T13:34:27;18.35;;;2.20;;
9783;SDS011;4931;44.874;-1.092;2024-02-26T13:36:55;15.02;;;2.42;;
9783;SDS011;4931;44.874;-1.092;2024-02-26T13:39:25;16.00;;;2.63;;
9783;SDS011;4931;44.874;-1.092;2024-02-26T13:41:51;15.55;;;2.30;;
9783;SDS011;4931;44.874;-1.092;2024-02-26T13:44:17;21.05;;;2.67;;
9783;SDS011;4931;44.874;-1.092;2024-02-26T13:46:43;21.75;;;3.25;;
9783;SDS011;4931;44.874;-1.092;2024-02-26T13:49:09;17.80;;;2.95;;
9783;SDS011;4931;44.874;-1.092;2024-02-26T13:51:36;20.30;;;3.70;;
9783;SDS011;4931;44.874;-1.092;2024-02-26T13:54:02;25.25;;;4.78;;
9783;SDS011;4931;44.874;-1.092;2024-02-26T13:56:28;30.17;;;5.53;;
9783;SDS011;4931;44.874;-1.092;2024-02-26T13:58:53;26.00;;;5.35;;
9783;SDS011;4931;44.874;-1.092;2024-02-26T14:01:18;22.80;;;4.00;;
9783;SDS011;4931;44.874;-1.092;2024-02-26T14:03:44;17.95;;;3.47;;
9783;SDS011;4931;44.874;-1.092;2024-02-26T14:06:10;23.75;;;3.08;;
9783;SDS011;4931;44.874;-1.092;2024-02-26T14:08:36;15.85;;;2.40;;
9783;SDS011;4931;44.874;-1.092;2024-02-26T14:11:01;17.48;;;2.75;;
9783;SDS011;4931;44.874;-1.092;2024-02-26T14:13:27;18.38;;;3.08;;
9783;SDS011;4931;44.874;-1.092;2024-02-26T14:15:52;13.90;;;2.53;;
9783;SDS011;4931;44.874;-1.092;2024-02-26T14:18:17;15.90;;;2.38;;
9783;SDS011;4931;44.874;-1.092;2024-02-26T14:20:43;16.77;;;2.83;;
9783;SDS011;4931;44.874;-1.092;2024-02-26T14:23:09;9.90;;;2.22;;
9783;SDS011;4931;44.874;-1.092;2024-02-26T14:25:35;12.02;;;2.40;;
9783;SDS011;4931;44.874;-1.092;2024-02-26T14:28:01;13.93;;;1.88;;
9783;SDS011;4931;44.874;-1.092;2024-02-26T14:30:27;10.15;;;2.03;;
9783;SDS011;4931;44.874;-1.092;2024-02-26T14:32:53;11.75;;;1.88;;
9783;SDS011;4931;44.874;-1.092;2024-02-26T14:35:19;11.93;;;2.08;;
9783;SDS011;4931;44.874;-1.092;2024-02-26T14:37:45;12.57;;;2.08;;
9783;SDS011;4931;44.874;-1.092;2024-02-26T14:40:14;13.65;;;2.03;;
9783;SDS011;4931;44.874;-1.092;2024-02-26T14:42:40;9.23;;;1.67;;
9783;SDS011;4931;44.874;-1.092;2024-02-26T14:45:06;14.15;;;2.15;;
9783;SDS011;4931;44.874;-1.092;2024-02-26T14:47:37;16.90;;;2.63;;
9783;SDS011;4931;44.874;-1.092;2024-02-26T14:50:03;9.10;;;1.85;;
9783;SDS011;4931;44.874;-1.092;2024-02-26T14:52:29;15.48;;;2.88;;
9783;SDS011;4931;44.874;-1.092;2024-02-26T14:54:55;14.25;;;2.85;;
9783;SDS011;4931;44.874;-1.092;2024-02-26T14:57:20;13.05;;;2.38;;
9783;SDS011;4931;44.874;-1.092;2024-02-26T14:59:46;17.77;;;2.70;;